sensor_id;sensor_type;location;lat;lon;timestamp;P1;durP1;ratioP1;P2;durP2;ratioP2
20935;SDS011;10627;54.514;18.532;2022-12-10T00:03:09;28.17;;;12.47;;
20935;SDS011;10627;54.514;18.532;2022-12-10T00:08:10;29.27;;;12.43;;
20935;SDS011;10627;54.514;18.532;2022-12-10T00:13:10;30.97;;;13.07;;
20935;SDS011;10627;54.514;18.532;2022-12-10T00:18:11;29.47;;;13.57;;
20935;SDS011;10627;54.514;18.532;2022-12-10T00:23:12;30.73;;;14.37;;
20935;SDS011;10627;54.514;18.532;2022-12-10T00:28:12;30.10;;;12.60;;
20935;SDS011;10627;54.514;18.532;2022-12-10T00:33:13;29.20;;;14.07;;
20935;SDS011;10627;54.514;18.532;2022-12-10T00:38:13;39.77;;;16.53;;
20935;SDS011;10627;54.514;18.532;2022-12-10T00:43:14;36.13;;;15.90;;
20935;SDS011;10627;54.514;18.532;2022-12-10T00:48:14;29.63;;;13.80;;
20935;SDS011;10627;54.514;18.532;2022-12-10T00:53:15;30.30;;;14.37;;
20935;SDS011;10627;54.514;18.532;2022-12-10T00:58:15;28.40;;;12.97;;
20935;SDS011;10627;54.514;18.532;2022-12-10T01:03:16;24.83;;;12.37;;
20935;SDS011;10627;54.514;18.532;2022-12-10T01:08:18;26.30;;;12.90;;
20935;SDS011;10627;54.514;18.532;2022-12-10T01:13:19;27.07;;;12.27;;
20935;SDS011;10627;54.514;18.532;2022-12-10T01:18:19;26.87;;;13.10;;
20935;SDS011;10627;54.514;18.532;2022-12-10T01:23:20;29.00;;;12.40;;
20935;SDS011;10627;54.514;18.532;2022-12-10T01:28:20;25.53;;;11.87;;
20935;SDS011;10627;54.514;18.532;2022-12-10T01:33:21;22.67;;;11.07;;
20935;SDS011;10627;54.514;18.532;2022-12-10T01:38:21;21.23;;;10.43;;
20935;SDS011;10627;54.514;18.532;2022-12-10T01:43:22;20.03;;;8.60;;
20935;SDS011;10627;54.514;18.532;2022-12-10T01:48:23;20.33;;;9.50;;
20935;SDS011;10627;54.514;18.532;2022-12-10T01:53:25;24.53;;;10.77;;
20935;SDS011;10627;54.514;18.532;2022-12-10T01:58:26;15.40;;;8.50;;
20935;SDS011;10627;54.514;18.532;2022-12-10T02:03:29;15.83;;;8.60;;
20935;SDS011;10627;54.514;18.532;2022-12-10T02:08:33;18.67;;;8.33;;
20935;SDS011;10627;54.514;18.532;2022-12-10T02:13:40;14.67;;;7.90;;
20935;SDS011;10627;54.514;18.532;2022-12-10T02:18:43;15.07;;;8.33;;
20935;SDS011;10627;54.514;18.532;2022-12-10T02:23:49;16.67;;;8.80;;
20935;SDS011;10627;54.514;18.532;2022-12-10T02:29:01;19.07;;;7.83;;
20935;SDS011;10627;54.514;18.532;2022-12-10T02:34:04;17.17;;;8.47;;
20935;SDS011;10627;54.514;18.532;2022-12-10T02:39:08;18.63;;;8.17;;
20935;SDS011;10627;54.514;18.532;2022-12-10T02:44:17;14.40;;;7.63;;
20935;SDS011;10627;54.514;18.532;2022-12-10T02:49:20;14.07;;;7.40;;
20935;SDS011;10627;54.514;18.532;2022-12-10T03:04:58;12.50;;;6.63;;
20935;SDS011;10627;54.514;18.532;2022-12-10T03:10:01;14.17;;;7.23;;
20935;SDS011;10627;54.514;18.532;2022-12-10T03:15:03;18.87;;;8.50;;
20935;SDS011;10627;54.514;18.532;2022-12-10T03:20:08;16.37;;;8.00;;
20935;SDS011;10627;54.514;18.532;2022-12-10T03:25:12;12.73;;;7.47;;
20935;SDS011;10627;54.514;18.532;2022-12-10T03:30:13;18.90;;;8.87;;
20935;SDS011;10627;54.514;18.532;2022-12-10T03:35:14;17.10;;;8.90;;
20935;SDS011;10627;54.514;18.532;2022-12-10T03:40:15;18.33;;;8.80;;
20935;SDS011;10627;54.514;18.532;2022-12-10T03:45:18;16.37;;;8.67;;
20935;SDS011;10627;54.514;18.532;2022-12-10T03:50:18;15.07;;;7.73;;
20935;SDS011;10627;54.514;18.532;2022-12-10T03:55:19;17.60;;;8.43;;
20935;SDS011;10627;54.514;18.532;2022-12-10T04:00:20;17.13;;;8.97;;
20935;SDS011;10627;54.514;18.532;2022-12-10T04:05:21;17.60;;;8.70;;
20935;SDS011;10627;54.514;18.532;2022-12-10T04:10:21;21.80;;;9.63;;
20935;SDS011;10627;54.514;18.532;2022-12-10T04:15:22;18.10;;;9.00;;
20935;SDS011;10627;54.514;18.532;2022-12-10T04:20:41;16.63;;;8.53;;
20935;SDS011;10627;54.514;18.532;2022-12-10T04:26:00;18.63;;;10.03;;
20935;SDS011;10627;54.514;18.532;2022-12-10T04:31:19;21.50;;;9.87;;
20935;SDS011;10627;54.514;18.532;2022-12-10T04:36:20;17.03;;;8.97;;
20935;SDS011;10627;54.514;18.532;2022-12-10T04:41:20;20.00;;;9.67;;
20935;SDS011;10627;54.514;18.532;2022-12-10T04:46:21;17.53;;;10.13;;
20935;SDS011;10627;54.514;18.532;2022-12-10T04:51:21;20.83;;;10.13;;
20935;SDS011;10627;54.514;18.532;2022-12-10T04:56:22;18.63;;;9.33;;
20935;SDS011;10627;54.514;18.532;2022-12-10T05:01:22;21.33;;;10.40;;
20935;SDS011;10627;54.514;18.532;2022-12-10T05:06:23;25.27;;;11.93;;
20935;SDS011;10627;54.514;18.532;2022-12-10T05:11:24;21.40;;;9.83;;
20935;SDS011;10627;54.514;18.532;2022-12-10T05:16:26;22.20;;;10.13;;
20935;SDS011;10627;54.514;18.532;2022-12-10T05:21:27;18.47;;;9.47;;
20935;SDS011;10627;54.514;18.532;2022-12-10T05:26:47;19.50;;;9.27;;
20935;SDS011;10627;54.514;18.532;2022-12-10T05:31:51;20.37;;;10.60;;
20935;SDS011;10627;54.514;18.532;2022-12-10T05:36:51;17.67;;;9.03;;
20935;SDS011;10627;54.514;18.532;2022-12-10T05:41:52;18.97;;;8.83;;
20935;SDS011;10627;54.514;18.532;2022-12-10T05:46:52;19.13;;;9.43;;
20935;SDS011;10627;54.514;18.532;2022-12-10T05:51:54;16.87;;;9.17;;
20935;SDS011;10627;54.514;18.532;2022-12-10T05:56:54;21.13;;;9.37;;
20935;SDS011;10627;54.514;18.532;2022-12-10T06:01:55;21.13;;;10.50;;
20935;SDS011;10627;54.514;18.532;2022-12-10T06:06:55;18.00;;;10.13;;
20935;SDS011;10627;54.514;18.532;2022-12-10T06:11:56;18.40;;;9.70;;
20935;SDS011;10627;54.514;18.532;2022-12-10T06:16:56;20.43;;;10.40;;
20935;SDS011;10627;54.514;18.532;2022-12-10T06:21:57;24.03;;;11.00;;
20935;SDS011;10627;54.514;18.532;2022-12-10T06:26:58;27.40;;;11.70;;
20935;SDS011;10627;54.514;18.532;2022-12-10T06:31:59;28.80;;;12.43;;
20935;SDS011;10627;54.514;18.532;2022-12-10T06:36:59;28.10;;;11.77;;
20935;SDS011;10627;54.514;18.532;2022-12-10T06:42:00;25.83;;;12.43;;
20935;SDS011;10627;54.514;18.532;2022-12-10T06:47:00;23.97;;;11.43;;
20935;SDS011;10627;54.514;18.532;2022-12-10T06:52:01;21.60;;;10.37;;
20935;SDS011;10627;54.514;18.532;2022-12-10T06:57:01;19.70;;;9.73;;
20935;SDS011;10627;54.514;18.532;2022-12-10T07:02:02;17.00;;;8.97;;
20935;SDS011;10627;54.514;18.532;2022-12-10T07:07:02;18.30;;;9.30;;
20935;SDS011;10627;54.514;18.532;2022-12-10T07:12:03;21.10;;;10.27;;
20935;SDS011;10627;54.514;18.532;2022-12-10T07:17:04;16.23;;;8.23;;
20935;SDS011;10627;54.514;18.532;2022-12-10T07:22:05;21.47;;;10.10;;
20935;SDS011;10627;54.514;18.532;2022-12-10T07:27:06;21.27;;;10.57;;
20935;SDS011;10627;54.514;18.532;2022-12-10T07:32:06;19.83;;;9.93;;
20935;SDS011;10627;54.514;18.532;2022-12-10T07:37:07;20.33;;;10.10;;
20935;SDS011;10627;54.514;18.532;2022-12-10T07:42:08;22.87;;;10.73;;
20935;SDS011;10627;54.514;18.532;2022-12-10T07:47:11;32.70;;;15.17;;
20935;SDS011;10627;54.514;18.532;2022-12-10T07:52:12;29.37;;;14.03;;
20935;SDS011;10627;54.514;18.532;2022-12-10T07:57:12;24.97;;;11.27;;
20935;SDS011;10627;54.514;18.532;2022-12-10T08:02:14;20.03;;;10.00;;
20935;SDS011;10627;54.514;18.532;2022-12-10T08:07:14;20.30;;;10.47;;
20935;SDS011;10627;54.514;18.532;2022-12-10T08:12:15;21.97;;;10.60;;
20935;SDS011;10627;54.514;18.532;2022-12-10T08:17:15;18.37;;;10.23;;
20935;SDS011;10627;54.514;18.532;2022-12-10T08:22:16;24.47;;;11.80;;
20935;SDS011;10627;54.514;18.532;2022-12-10T08:27:16;21.27;;;11.00;;
20935;SDS011;10627;54.514;18.532;2022-12-10T08:32:17;21.87;;;12.53;;
20935;SDS011;10627;54.514;18.532;2022-12-10T08:37:18;26.07;;;12.03;;
20935;SDS011;10627;54.514;18.532;2022-12-10T08:42:18;29.63;;;13.97;;
20935;SDS011;10627;54.514;18.532;2022-12-10T08:47:19;23.10;;;11.70;;
20935;SDS011;10627;54.514;18.532;2022-12-10T08:52:19;27.57;;;13.87;;
20935;SDS011;10627;54.514;18.532;2022-12-10T08:57:20;25.87;;;12.47;;
20935;SDS011;10627;54.514;18.532;2022-12-10T09:02:20;25.73;;;13.10;;
20935;SDS011;10627;54.514;18.532;2022-12-10T09:07:21;31.07;;;13.60;;
20935;SDS011;10627;54.514;18.532;2022-12-10T09:12:22;22.80;;;12.47;;
20935;SDS011;10627;54.514;18.532;2022-12-10T09:17:22;20.73;;;11.70;;
20935;SDS011;10627;54.514;18.532;2022-12-10T09:22:23;25.03;;;13.03;;
20935;SDS011;10627;54.514;18.532;2022-12-10T09:27:23;25.20;;;12.63;;
20935;SDS011;10627;54.514;18.532;2022-12-10T09:32:24;22.03;;;12.20;;
20935;SDS011;10627;54.514;18.532;2022-12-10T09:37:25;30.33;;;14.57;;
20935;SDS011;10627;54.514;18.532;2022-12-10T09:47:57;40.50;;;14.83;;
20935;SDS011;10627;54.514;18.532;2022-12-10T09:52:59;31.17;;;14.23;;
20935;SDS011;10627;54.514;18.532;2022-12-10T09:58:00;32.40;;;14.87;;
20935;SDS011;10627;54.514;18.532;2022-12-10T10:03:02;39.17;;;17.37;;
20935;SDS011;10627;54.514;18.532;2022-12-10T10:08:04;41.40;;;19.50;;
20935;SDS011;10627;54.514;18.532;2022-12-10T10:18:14;36.03;;;16.60;;
20935;SDS011;10627;54.514;18.532;2022-12-10T10:23:15;35.70;;;16.67;;
20935;SDS011;10627;54.514;18.532;2022-12-10T10:28:20;30.00;;;14.50;;
20935;SDS011;10627;54.514;18.532;2022-12-10T10:33:21;30.63;;;15.03;;
20935;SDS011;10627;54.514;18.532;2022-12-10T10:38:30;24.73;;;12.53;;
20935;SDS011;10627;54.514;18.532;2022-12-10T10:43:33;26.17;;;12.67;;
20935;SDS011;10627;54.514;18.532;2022-12-10T10:48:34;25.80;;;12.40;;
20935;SDS011;10627;54.514;18.532;2022-12-10T10:58:56;23.10;;;12.13;;
20935;SDS011;10627;54.514;18.532;2022-12-10T11:03:58;23.20;;;10.20;;
20935;SDS011;10627;54.514;18.532;2022-12-10T11:08:59;17.40;;;9.70;;
20935;SDS011;10627;54.514;18.532;2022-12-10T11:19:20;17.93;;;9.07;;
20935;SDS011;10627;54.514;18.532;2022-12-10T11:24:21;16.53;;;9.27;;
20935;SDS011;10627;54.514;18.532;2022-12-10T11:39:39;21.20;;;12.20;;
20935;SDS011;10627;54.514;18.532;2022-12-10T11:50:12;21.40;;;12.30;;
20935;SDS011;10627;54.514;18.532;2022-12-10T12:00:19;38.90;;;18.43;;
20935;SDS011;10627;54.514;18.532;2022-12-10T12:05:30;46.00;;;20.60;;
20935;SDS011;10627;54.514;18.532;2022-12-10T12:15:55;42.53;;;19.07;;
20935;SDS011;10627;54.514;18.532;2022-12-10T12:21:01;44.93;;;20.63;;
20935;SDS011;10627;54.514;18.532;2022-12-10T12:26:04;42.67;;;18.70;;
20935;SDS011;10627;54.514;18.532;2022-12-10T12:31:08;36.13;;;17.17;;
20935;SDS011;10627;54.514;18.532;2022-12-10T12:36:11;38.80;;;18.27;;
20935;SDS011;10627;54.514;18.532;2022-12-10T12:41:15;37.50;;;17.80;;
20935;SDS011;10627;54.514;18.532;2022-12-10T12:46:18;37.70;;;16.80;;
20935;SDS011;10627;54.514;18.532;2022-12-10T12:51:43;44.37;;;18.67;;
20935;SDS011;10627;54.514;18.532;2022-12-10T13:01:48;42.70;;;19.47;;
20935;SDS011;10627;54.514;18.532;2022-12-10T13:17:33;45.10;;;20.37;;
20935;SDS011;10627;54.514;18.532;2022-12-10T13:27:37;46.50;;;21.10;;
20935;SDS011;10627;54.514;18.532;2022-12-10T13:42:55;29.70;;;13.83;;
20935;SDS011;10627;54.514;18.532;2022-12-10T13:48:16;26.70;;;12.73;;
20935;SDS011;10627;54.514;18.532;2022-12-10T13:58:32;37.57;;;17.43;;
20935;SDS011;10627;54.514;18.532;2022-12-10T14:08:36;38.63;;;18.23;;
20935;SDS011;10627;54.514;18.532;2022-12-10T14:13:40;33.77;;;16.57;;
20935;SDS011;10627;54.514;18.532;2022-12-10T14:18:43;33.60;;;16.47;;
20935;SDS011;10627;54.514;18.532;2022-12-10T14:23:46;41.70;;;18.63;;
20935;SDS011;10627;54.514;18.532;2022-12-10T14:28:55;38.97;;;20.83;;
20935;SDS011;10627;54.514;18.532;2022-12-10T14:33:59;40.60;;;20.40;;
20935;SDS011;10627;54.514;18.532;2022-12-10T14:38:59;42.63;;;20.73;;
20935;SDS011;10627;54.514;18.532;2022-12-10T14:44:01;33.97;;;18.03;;
20935;SDS011;10627;54.514;18.532;2022-12-10T14:49:03;42.63;;;18.83;;
20935;SDS011;10627;54.514;18.532;2022-12-10T14:54:04;34.10;;;16.50;;
20935;SDS011;10627;54.514;18.532;2022-12-10T14:59:26;45.93;;;21.60;;
20935;SDS011;10627;54.514;18.532;2022-12-10T15:04:40;47.33;;;22.67;;
20935;SDS011;10627;54.514;18.532;2022-12-10T15:09:41;44.63;;;18.20;;
20935;SDS011;10627;54.514;18.532;2022-12-10T15:14:42;38.97;;;18.27;;
20935;SDS011;10627;54.514;18.532;2022-12-10T15:19:43;45.37;;;22.83;;
20935;SDS011;10627;54.514;18.532;2022-12-10T15:24:50;43.80;;;20.60;;
20935;SDS011;10627;54.514;18.532;2022-12-10T15:29:51;41.83;;;20.47;;
20935;SDS011;10627;54.514;18.532;2022-12-10T15:34:59;47.93;;;21.70;;
20935;SDS011;10627;54.514;18.532;2022-12-10T15:40:00;48.57;;;21.63;;
20935;SDS011;10627;54.514;18.532;2022-12-10T15:45:03;56.23;;;23.43;;
20935;SDS011;10627;54.514;18.532;2022-12-10T15:50:04;53.27;;;24.07;;
20935;SDS011;10627;54.514;18.532;2022-12-10T15:55:05;56.08;;;26.13;;
20935;SDS011;10627;54.514;18.532;2022-12-10T16:00:07;53.67;;;22.37;;
20935;SDS011;10627;54.514;18.532;2022-12-10T16:05:19;41.40;;;16.27;;
20935;SDS011;10627;54.514;18.532;2022-12-10T16:10:20;31.47;;;14.93;;
20935;SDS011;10627;54.514;18.532;2022-12-10T16:15:22;25.90;;;12.67;;
20935;SDS011;10627;54.514;18.532;2022-12-10T16:20:26;20.33;;;11.30;;
20935;SDS011;10627;54.514;18.532;2022-12-10T16:25:28;21.57;;;10.90;;
20935;SDS011;10627;54.514;18.532;2022-12-10T16:30:36;23.83;;;12.70;;
20935;SDS011;10627;54.514;18.532;2022-12-10T16:35:37;21.60;;;12.77;;
20935;SDS011;10627;54.514;18.532;2022-12-10T16:40:38;32.37;;;14.30;;
20935;SDS011;10627;54.514;18.532;2022-12-10T16:45:39;28.00;;;13.97;;
20935;SDS011;10627;54.514;18.532;2022-12-10T16:50:40;28.87;;;13.50;;
20935;SDS011;10627;54.514;18.532;2022-12-10T16:55:41;20.97;;;10.07;;
20935;SDS011;10627;54.514;18.532;2022-12-10T17:00:43;31.10;;;12.17;;
20935;SDS011;10627;54.514;18.532;2022-12-10T17:05:45;24.47;;;11.37;;
20935;SDS011;10627;54.514;18.532;2022-12-10T17:10:46;27.30;;;11.63;;
20935;SDS011;10627;54.514;18.532;2022-12-10T17:16:15;28.60;;;11.97;;
20935;SDS011;10627;54.514;18.532;2022-12-10T17:21:18;34.83;;;11.57;;
20935;SDS011;10627;54.514;18.532;2022-12-10T17:26:27;26.73;;;11.60;;
20935;SDS011;10627;54.514;18.532;2022-12-10T17:31:29;35.07;;;11.97;;
20935;SDS011;10627;54.514;18.532;2022-12-10T17:36:30;26.70;;;11.33;;
20935;SDS011;10627;54.514;18.532;2022-12-10T17:41:30;29.40;;;13.20;;
20935;SDS011;10627;54.514;18.532;2022-12-10T17:46:31;35.17;;;15.47;;
20935;SDS011;10627;54.514;18.532;2022-12-10T17:51:31;38.40;;;17.70;;
20935;SDS011;10627;54.514;18.532;2022-12-10T17:56:32;42.20;;;18.60;;
20935;SDS011;10627;54.514;18.532;2022-12-10T18:01:32;41.43;;;18.70;;
20935;SDS011;10627;54.514;18.532;2022-12-10T18:06:33;50.83;;;23.40;;
20935;SDS011;10627;54.514;18.532;2022-12-10T18:11:34;53.53;;;22.90;;
20935;SDS011;10627;54.514;18.532;2022-12-10T18:16:35;49.37;;;19.53;;
20935;SDS011;10627;54.514;18.532;2022-12-10T18:21:36;29.43;;;14.17;;
20935;SDS011;10627;54.514;18.532;2022-12-10T18:26:36;27.43;;;14.20;;
20935;SDS011;10627;54.514;18.532;2022-12-10T18:31:37;32.93;;;15.10;;
20935;SDS011;10627;54.514;18.532;2022-12-10T18:36:39;34.07;;;14.73;;
20935;SDS011;10627;54.514;18.532;2022-12-10T18:41:39;43.80;;;18.03;;
20935;SDS011;10627;54.514;18.532;2022-12-10T18:46:40;40.77;;;17.77;;
20935;SDS011;10627;54.514;18.532;2022-12-10T18:51:40;37.37;;;16.73;;
20935;SDS011;10627;54.514;18.532;2022-12-10T18:56:41;34.10;;;15.57;;
20935;SDS011;10627;54.514;18.532;2022-12-10T19:01:42;40.50;;;21.43;;
20935;SDS011;10627;54.514;18.532;2022-12-10T19:06:43;45.83;;;23.88;;
20935;SDS011;10627;54.514;18.532;2022-12-10T19:11:44;30.47;;;14.27;;
20935;SDS011;10627;54.514;18.532;2022-12-10T19:16:46;31.33;;;14.10;;
20935;SDS011;10627;54.514;18.532;2022-12-10T19:21:47;32.73;;;15.37;;
20935;SDS011;10627;54.514;18.532;2022-12-10T19:26:47;28.73;;;13.93;;
20935;SDS011;10627;54.514;18.532;2022-12-10T19:31:48;32.27;;;15.37;;
20935;SDS011;10627;54.514;18.532;2022-12-10T19:36:50;55.00;;;22.63;;
20935;SDS011;10627;54.514;18.532;2022-12-10T19:41:51;51.80;;;20.97;;
20935;SDS011;10627;54.514;18.532;2022-12-10T19:46:51;47.90;;;22.70;;
20935;SDS011;10627;54.514;18.532;2022-12-10T19:51:52;43.07;;;19.93;;
20935;SDS011;10627;54.514;18.532;2022-12-10T19:56:52;52.87;;;21.10;;
20935;SDS011;10627;54.514;18.532;2022-12-10T20:01:53;45.00;;;20.17;;
20935;SDS011;10627;54.514;18.532;2022-12-10T20:06:53;44.43;;;19.70;;
20935;SDS011;10627;54.514;18.532;2022-12-10T20:11:54;50.80;;;23.57;;
20935;SDS011;10627;54.514;18.532;2022-12-10T20:16:55;54.70;;;24.90;;
20935;SDS011;10627;54.514;18.532;2022-12-10T20:21:55;56.67;;;24.47;;
20935;SDS011;10627;54.514;18.532;2022-12-10T20:26:56;51.53;;;22.10;;
20935;SDS011;10627;54.514;18.532;2022-12-10T20:31:57;55.33;;;22.70;;
20935;SDS011;10627;54.514;18.532;2022-12-10T20:36:57;46.13;;;20.73;;
20935;SDS011;10627;54.514;18.532;2022-12-10T20:41:58;29.20;;;14.50;;
20935;SDS011;10627;54.514;18.532;2022-12-10T20:46:59;29.30;;;13.67;;
20935;SDS011;10627;54.514;18.532;2022-12-10T20:52:00;36.20;;;16.20;;
20935;SDS011;10627;54.514;18.532;2022-12-10T20:57:00;33.23;;;16.47;;
20935;SDS011;10627;54.514;18.532;2022-12-10T21:02:01;39.53;;;18.00;;
20935;SDS011;10627;54.514;18.532;2022-12-10T21:07:02;39.90;;;18.93;;
20935;SDS011;10627;54.514;18.532;2022-12-10T21:12:02;39.40;;;18.57;;
20935;SDS011;10627;54.514;18.532;2022-12-10T21:17:03;42.20;;;20.57;;
20935;SDS011;10627;54.514;18.532;2022-12-10T21:22:03;44.67;;;22.17;;
20935;SDS011;10627;54.514;18.532;2022-12-10T21:27:04;42.47;;;19.27;;
20935;SDS011;10627;54.514;18.532;2022-12-10T21:32:05;39.57;;;18.07;;
20935;SDS011;10627;54.514;18.532;2022-12-10T21:37:05;40.67;;;19.37;;
20935;SDS011;10627;54.514;18.532;2022-12-10T21:42:06;56.03;;;26.33;;
20935;SDS011;10627;54.514;18.532;2022-12-10T21:47:25;48.60;;;22.30;;
20935;SDS011;10627;54.514;18.532;2022-12-10T21:52:26;51.93;;;23.87;;
20935;SDS011;10627;54.514;18.532;2022-12-10T21:57:26;91.80;;;39.70;;
20935;SDS011;10627;54.514;18.532;2022-12-10T22:02:27;127.87;;;45.77;;
20935;SDS011;10627;54.514;18.532;2022-12-10T22:07:27;66.40;;;28.73;;
20935;SDS011;10627;54.514;18.532;2022-12-10T22:12:29;36.70;;;17.20;;
20935;SDS011;10627;54.514;18.532;2022-12-10T22:17:29;37.73;;;17.90;;
20935;SDS011;10627;54.514;18.532;2022-12-10T22:22:30;40.63;;;18.27;;
20935;SDS011;10627;54.514;18.532;2022-12-10T22:27:31;43.87;;;19.90;;
20935;SDS011;10627;54.514;18.532;2022-12-10T22:32:34;79.47;;;30.30;;
20935;SDS011;10627;54.514;18.532;2022-12-10T22:37:34;65.77;;;24.83;;
20935;SDS011;10627;54.514;18.532;2022-12-10T22:42:35;54.90;;;24.40;;
20935;SDS011;10627;54.514;18.532;2022-12-10T22:47:39;57.40;;;23.83;;
20935;SDS011;10627;54.514;18.532;2022-12-10T22:52:39;86.10;;;30.67;;
20935;SDS011;10627;54.514;18.532;2022-12-10T22:57:40;44.93;;;20.90;;
20935;SDS011;10627;54.514;18.532;2022-12-10T23:02:41;59.30;;;23.27;;
20935;SDS011;10627;54.514;18.532;2022-12-10T23:07:41;55.30;;;22.47;;
20935;SDS011;10627;54.514;18.532;2022-12-10T23:12:42;43.97;;;21.20;;
20935;SDS011;10627;54.514;18.532;2022-12-10T23:18:01;51.00;;;22.83;;
20935;SDS011;10627;54.514;18.532;2022-12-10T23:23:01;48.07;;;21.07;;
20935;SDS011;10627;54.514;18.532;2022-12-10T23:28:02;52.57;;;23.00;;
20935;SDS011;10627;54.514;18.532;2022-12-10T23:33:03;54.57;;;22.47;;
20935;SDS011;10627;54.514;18.532;2022-12-10T23:38:03;45.00;;;20.60;;
20935;SDS011;10627;54.514;18.532;2022-12-10T23:43:04;39.37;;;18.07;;
20935;SDS011;10627;54.514;18.532;2022-12-10T23:48:04;39.37;;;17.90;;
20935;SDS011;10627;54.514;18.532;2022-12-10T23:53:05;41.87;;;18.17;;
20935;SDS011;10627;54.514;18.532;2022-12-10T23:58:05;40.80;;;19.80;;
